Time;durP1;ratioP1;P1;durP2;ratioP2;P2;SDS_P1;SDS_P2;PMS_P1;PMS_P2;Temp;Humidity;BMP_temperature;BMP_pressure;BME280_temperature;BME280_humidity;BME280_pressure;Samples;Min_cycle;Max_cycle;Signal;HPM_P1;HPM_P2
2024/02/05 00:02:18;;;;;;;2.47;1.27;;;;;;;38.83;22.98;100151.19;7399771;19;20027;-54
2024/02/05 00:04:44;;;;;;;7.68;1.02;;;;;;;38.81;23.28;100151.13;7395887;19;20029;-54
2024/02/05 00:07:11;;;;;;;1.27;1.20;;;;;;;38.79;23.48;100145.94;7394887;19;20006;-55
2024/02/05 00:09:37;;;;;;;3.20;1.00;;;;;;;39.06;23.05;100142.63;7394892;19;20027;-54
2024/02/05 00:12:04;;;;;;;6.22;0.63;;;;;;;15.15;100.00;100196.34;7394915;19;20074;-54
2024/02/05 00:14:30;;;;;;;10.85;0.95;;;;;;;32.78;39.72;100166.22;7394236;19;20049;-54
2024/02/05 00:16:56;;;;;;;0.22;0.22;;;;;;;21.11;52.69;100179.34;7394507;19;20018;-54
2024/02/05 00:19:22;;;;;;;5.47;0.85;;;;;;;12.40;100.00;100194.97;7392559;19;20382;-54
2024/02/05 00:21:48;;;;;;;3.33;1.48;;;;;;;10.70;100.00;100187.88;7397947;19;20369;-54
2024/02/05 00:24:15;;;;;;;1.83;0.50;;;;;;;10.03;100.00;100198.47;7394699;19;20035;-54
2024/02/05 00:26:41;;;;;;;0.63;0.40;;;;;;;9.71;100.00;100183.13;7394046;19;20517;-54
2024/02/05 00:29:08;;;;;;;1.27;0.68;;;;;;;9.52;100.00;100187.13;7393126;19;20014;-54
2024/02/05 00:31:37;;;;;;;7.78;0.90;;;;;;;9.38;100.00;100184.91;7394218;19;20013;-53
2024/02/05 00:34:04;;;;;;;0.65;0.50;;;;;;;9.32;100.00;100183.97;7394452;19;20025;-55
2024/02/05 00:36:30;;;;;;;0.50;0.50;;;;;;;9.26;100.00;100185.81;7395757;19;20082;-54
2024/02/05 00:38:56;;;;;;;0.68;0.68;;;;;;;9.30;100.00;100186.44;7394393;19;20365;-54
2024/02/05 00:41:22;;;;;;;2.78;0.88;;;;;;;9.23;100.00;100175.59;7395182;19;20088;-54
2024/02/05 00:43:48;;;;;;;0.40;0.40;;;;;;;9.36;100.00;100162.34;7392881;19;20018;-54
2024/02/05 00:46:22;;;;;;;1.70;0.57;;;;;;;9.36;100.00;100173.47;7392431;19;20018;-54
2024/02/05 00:48:51;;;;;;;1.27;0.93;;;;;;;9.34;100.00;100189.84;7392737;19;20074;-54
2024/02/05 00:51:17;;;;;;;14.88;1.13;;;;;;;9.31;100.00;100165.75;7393754;19;20014;-54
2024/02/05 00:53:43;;;;;;;23.58;0.90;;;;;;;9.35;100.00;100166.38;7394273;19;20010;-54
2024/02/05 00:56:09;;;;;;;1.35;0.88;;;;;;;9.29;100.00;100159.91;7393099;19;20031;-54
2024/02/05 00:58:36;;;;;;;0.52;0.52;;;;;;;9.30;100.00;100159.44;7392079;19;20018;-54
2024/02/05 01:01:02;;;;;;;11.38;0.65;;;;;;;9.24;100.00;100171.59;7394597;19;20010;-55
2024/02/05 01:03:28;;;;;;;2.83;0.85;;;;;;;9.25;100.00;100173.16;7392114;19;20011;-54
2024/02/05 01:05:54;;;;;;;2.40;0.85;;;;;;;9.34;100.00;100171.16;7391572;19;20006;-54
2024/02/05 01:08:21;;;;;;;0.82;0.50;;;;;;;9.39;100.00;100167.00;7393289;19;20018;-54
2024/02/05 01:10:47;;;;;;;0.77;0.20;;;;;;;9.34;100.00;100170.38;7392412;19;20019;-54
2024/02/05 01:13:13;;;;;;;1.67;0.63;;;;;;;9.30;100.00;100170.53;7393626;19;20010;-54
2024/02/05 01:15:39;;;;;;;1.25;0.85;;;;;;;9.30;100.00;100169.75;7392594;19;20010;-54
2024/02/05 01:18:05;;;;;;;6.45;2.08;;;;;;;9.29;100.00;100171.00;7392765;19;20022;-54
2024/02/05 01:20:31;;;;;;;7.32;1.05;;;;;;;9.29;100.00;100174.53;7392617;19;20011;-54
2024/02/05 01:22:57;;;;;;;0.40;0.40;;;;;;;9.30;100.00;100166.97;7395128;19;20523;-54
2024/02/05 01:25:24;;;;;;;0.93;0.40;;;;;;;9.28;100.00;100177.78;7399296;19;20469;-54
2024/02/05 01:27:50;;;;;;;2.63;2.05;;;;;;;9.27;100.00;100170.69;7400171;19;20009;-54
2024/02/05 01:30:18;;;;;;;1.83;0.52;;;;;;;9.24;100.00;100172.38;7399791;19;20014;-54
2024/02/05 01:32:44;;;;;;;4.20;0.65;;;;;;;9.32;100.00;100167.28;7400203;19;20014;-54
2024/02/05 01:35:10;;;;;;;0.45;0.35;;;;;;;9.20;100.00;100168.97;7400204;19;20010;-54
2024/02/05 01:37:36;;;;;;;1.55;0.85;;;;;;;9.29;100.00;100162.66;7402292;19;20031;-54
2024/02/05 01:40:12;;;;;;;3.83;1.38;;;;;;;9.74;100.00;100154.41;7399072;19;20031;-54
2024/02/05 01:42:39;;;;;;;9.00;1.83;;;;;;;10.53;100.00;100159.63;7399396;19;20468;-54
2024/02/05 01:45:07;;;;;;;10.32;1.08;;;;;;;10.68;100.00;100143.78;7399753;19;20010;-54
2024/02/05 01:47:34;;;;;;;0.10;0.10;;;;;;;10.74;100.00;100159.88;7399380;19;20388;-54
2024/02/05 01:50:03;;;;;;;2.20;0.95;;;;;;;10.83;100.00;100162.63;7398990;19;20010;-54
2024/02/05 01:52:30;;;;;;;0.52;0.30;;;;;;;13.55;100.00;100147.78;7395503;19;20018;-54
2024/02/05 01:54:57;;;;;;;1.00;0.30;;;;;;;11.43;100.00;100155.66;7398227;19;20025;-54
2024/02/05 01:57:24;;;;;;;0.60;0.52;;;;;;;11.12;100.00;100144.09;7398183;19;20017;-54
2024/02/05 01:59:51;;;;;;;4.40;0.80;;;;;;;24.88;100.00;100130.22;7402467;19;20070;-54
2024/02/05 02:02:17;;;;;;;0.32;0.32;;;;;;;34.16;39.37;100111.78;7403755;19;20109;-54
2024/02/05 02:04:43;;;;;;;0.20;0.20;;;;;;;37.06;32.67;100107.31;7399029;19;20015;-54
2024/02/05 02:07:11;;;;;;;1.05;0.45;;;;;;;37.86;29.72;100107.22;7398816;19;20015;-54
2024/02/05 02:09:37;;;;;;;6.22;1.73;;;;;;;38.27;28.24;100098.03;7398467;19;20021;-54
2024/02/05 02:12:04;;;;;;;2.00;0.95;;;;;;;38.09;27.45;100103.09;7396564;19;20017;-54
2024/02/05 02:14:30;;;;;;;7.95;1.02;;;;;;;38.63;26.33;100105.28;7397240;19;20007;-54
2024/02/05 02:16:56;;;;;;;0.75;0.28;;;;;;;38.59;26.19;100098.56;7397457;19;20334;-54
2024/02/05 02:19:46;;;;;;;1.00;0.70;;;;;;;38.65;25.15;100102.47;7397606;19;20427;-54
2024/02/05 02:22:32;;;;;;;2.38;0.70;;;;;;;38.22;25.10;100102.19;7400773;19;20021;-54
2024/02/05 02:25:00;;;;;;;5.80;0.35;;;;;;;38.22;24.95;100102.19;7398514;19;20466;-54
2024/02/05 02:27:26;;;;;;;2.60;0.32;;;;;;;38.38;25.21;100102.84;7398087;19;20027;-55
2024/02/05 02:29:52;;;;;;;3.40;0.60;;;;;;;38.36;24.85;100094.03;7397502;19;20035;-54
2024/02/05 02:32:51;;;;;;;5.63;0.70;;;;;;;38.23;24.26;100097.09;7399270;19;20018;-55
2024/02/05 02:35:27;;;;;;;1.83;1.13;;;;;;;38.19;24.39;100094.78;7399204;19;20011;-54
2024/02/05 02:38:09;;;;;;;10.15;0.40;;;;;;;38.29;24.22;100095.19;7401120;19;20018;-54
2024/02/05 02:40:38;;;;;;;2.67;0.57;;;;;;;38.24;24.44;100102.25;7398118;19;20015;-54
2024/02/05 02:43:06;;;;;;;4.00;0.77;;;;;;;38.48;24.06;100093.75;7397044;19;20694;-54
2024/02/05 02:45:32;;;;;;;0.15;0.10;;;;;;;38.37;23.99;100098.44;7396286;19;20019;-54
2024/02/05 02:47:59;;;;;;;0.98;0.57;;;;;;;38.38;23.80;100090.47;7396840;19;20028;-54
2024/02/05 02:50:26;;;;;;;5.47;0.77;;;;;;;38.59;24.16;100093.50;7397456;19;20010;-55
2024/02/05 02:52:53;;;;;;;4.07;1.27;;;;;;;37.99;23.67;100090.31;7397621;19;20011;-55
2024/02/05 02:55:19;;;;;;;0.73;0.40;;;;;;;38.41;23.59;100083.28;7397317;19;20495;-55
2024/02/05 02:57:45;;;;;;;7.63;1.75;;;;;;;38.38;23.44;100091.19;7397324;19;20018;-55
2024/02/05 03:00:12;;;;;;;0.57;0.30;;;;;;;38.58;23.43;100073.75;7399920;19;20043;-55
2024/02/05 03:02:39;;;;;;;11.02;0.77;;;;;;;38.72;23.20;100088.16;7397843;19;20018;-54
2024/02/05 03:05:06;;;;;;;2.08;0.73;;;;;;;38.36;23.13;100075.81;7394760;19;20010;-54
2024/02/05 03:07:35;;;;;;;16.90;0.63;;;;;;;38.11;23.52;100077.00;7400339;19;20052;-54
2024/02/05 03:10:05;;;;;;;0.50;0.50;;;;;;;38.02;23.85;100075.16;7396762;19;20010;-55
2024/02/05 03:12:32;;;;;;;0.52;0.52;;;;;;;37.79;23.67;100082.19;7394340;19;20010;-54
2024/02/05 03:15:00;;;;;;;1.95;0.57;;;;;;;37.77;24.00;100081.38;7395126;19;20503;-54
2024/02/05 03:17:26;;;;;;;1.05;0.70;;;;;;;38.26;23.23;100073.25;7399147;19;20035;-54
2024/02/05 03:19:53;;;;;;;3.45;0.75;;;;;;;38.50;23.07;100071.31;7395149;19;20022;-54
2024/02/05 03:22:19;;;;;;;1.55;0.55;;;;;;;38.98;22.67;100062.91;7395028;19;20040;-55
2024/02/05 03:24:46;;;;;;;5.82;1.00;;;;;;;38.61;22.98;100067.38;7393352;19;20019;-54
2024/02/05 03:27:12;;;;;;;12.98;1.15;;;;;;;38.42;22.73;100056.41;7397527;19;20011;-55
2024/02/05 03:29:39;;;;;;;2.60;0.50;;;;;;;38.49;23.03;100055.25;7395014;19;20359;-54
2024/02/05 03:32:05;;;;;;;2.17;0.63;;;;;;;38.63;23.12;100052.88;7395193;19;20041;-54
2024/02/05 03:34:31;;;;;;;3.22;1.08;;;;;;;38.59;22.64;100055.66;7395348;19;20505;-54
2024/02/05 03:36:58;;;;;;;0.22;0.15;;;;;;;38.67;22.73;100046.44;7397477;19;20014;-55
2024/02/05 03:39:26;;;;;;;0.10;0.10;;;;;;;39.09;22.58;100026.91;7397784;19;20023;-54
2024/02/05 03:41:52;;;;;;;1.55;0.63;;;;;;;39.27;22.50;100033.38;7395521;19;20015;-54
2024/02/05 03:44:19;;;;;;;7.38;0.40;;;;;;;39.34;22.28;100035.09;7395289;19;20019;-54
2024/02/05 03:46:45;;;;;;;0.70;0.43;;;;;;;39.25;22.28;100027.50;7396224;19;20074;-54
2024/02/05 03:49:11;;;;;;;0.60;0.30;;;;;;;39.52;22.24;100038.66;7394499;19;20011;-54
2024/02/05 03:51:37;;;;;;;0.57;0.50;;;;;;;39.48;22.03;100031.94;7396351;19;20374;-54
2024/02/05 03:54:07;;;;;;;1.58;1.13;;;;;;;39.65;22.23;100017.25;7397939;19;20456;-54
2024/02/05 03:56:33;;;;;;;0.40;0.35;;;;;;;39.90;21.59;100013.69;7394862;19;20023;-55
2024/02/05 03:58:59;;;;;;;0.28;0.28;;;;;;;39.99;21.40;100017.63;7394996;19;20011;-54
2024/02/05 04:01:25;;;;;;;3.20;1.38;;;;;;;39.94;21.88;100015.97;7397360;19;20014;-55
2024/02/05 04:03:51;;;;;;;4.97;1.00;;;;;;;40.15;21.27;100020.31;7394701;19;20076;-55
2024/02/05 04:06:19;;;;;;;0.50;0.25;;;;;;;39.94;21.57;100022.56;7393591;19;20463;-54
2024/02/05 04:08:45;;;;;;;0.30;0.30;;;;;;;40.13;21.54;100014.41;7395041;19;20026;-54
2024/02/05 04:11:11;;;;;;;0.47;0.47;;;;;;;40.11;21.55;100030.41;7394384;19;20010;-54
2024/02/05 04:13:37;;;;;;;0.10;0.10;;;;;;;39.68;21.42;100027.53;7395746;19;20007;-55
2024/02/05 04:16:07;;;;;;;2.17;0.85;;;;;;;39.63;21.62;100025.94;7394558;19;20007;-55
2024/02/05 04:18:33;;;;;;;0.15;0.03;;;;;;;40.08;21.11;100016.47;7394030;19;20010;-54
2024/02/05 04:21:03;;;;;;;0.28;0.20;;;;;;;40.21;21.41;100005.91;7393500;19;20010;-54
2024/02/05 04:23:30;;;;;;;2.33;0.73;;;;;;;40.02;21.34;100014.09;7391649;19;20007;-55
2024/02/05 04:25:56;;;;;;;0.90;0.30;;;;;;;40.16;21.05;100015.94;7396348;19;20011;-54
2024/02/05 04:28:23;;;;;;;0.90;0.68;;;;;;;40.02;21.36;100008.28;7392137;19;20018;-54
2024/02/05 04:30:50;;;;;;;2.97;0.63;;;;;;;40.02;21.28;100007.53;7393630;19;20018;-54
2024/02/05 04:33:16;;;;;;;1.38;0.43;;;;;;;40.13;21.19;100014.41;7394170;19;20017;-55
2024/02/05 04:35:42;;;;;;;0.20;0.20;;;;;;;40.11;20.93;100004.16;7394563;19;20019;-55
2024/02/05 04:38:08;;;;;;;21.20;1.70;;;;;;;40.04;21.13;100002.50;7398755;19;20013;-54
2024/02/05 04:40:34;;;;;;;0.10;0.10;;;;;;;39.99;21.07;100000.88;7393533;19;20011;-54
2024/02/05 04:43:00;;;;;;;1.23;0.55;;;;;;;39.63;21.27;99987.25;7393787;19;20013;-54
2024/02/05 04:45:27;;;;;;;0.20;0.20;;;;;;;39.86;21.22;99972.72;7393677;19;20078;-54
2024/02/05 04:47:53;;;;;;;2.15;0.20;;;;;;;39.78;21.44;99981.22;7391372;19;20332;-54
2024/02/05 04:50:19;;;;;;;6.10;0.70;;;;;;;39.97;21.31;99970.84;7392638;19;20014;-54
2024/02/05 04:52:47;;;;;;;1.90;1.00;;;;;;;39.92;21.58;99981.66;7392305;19;20011;-54
2024/02/05 04:55:13;;;;;;;2.70;0.43;;;;;;;39.88;21.39;99975.69;7393522;19;20031;-54
2024/02/05 04:57:40;;;;;;;2.95;0.43;;;;;;;39.77;21.39;99978.94;7391440;19;20073;-54
2024/02/05 05:00:07;;;;;;;4.82;1.45;;;;;;;39.59;21.14;99979.13;7393532;19;20066;-54
2024/02/05 05:02:33;;;;;;;1.80;0.38;;;;;;;39.68;21.54;99975.03;7392695;19;20014;-54
2024/02/05 05:04:59;;;;;;;1.48;0.73;;;;;;;39.66;21.49;99980.81;7393040;19;20011;-54
2024/02/05 05:07:26;;;;;;;1.70;0.65;;;;;;;39.54;21.26;99983.31;7393437;19;20019;-54
2024/02/05 05:09:52;;;;;;;0.93;0.85;;;;;;;39.29;21.30;99975.91;7393670;19;20018;-54
2024/02/05 05:12:18;;;;;;;5.38;1.20;;;;;;;39.41;21.37;99969.75;7391614;19;20070;-54
2024/02/05 05:14:44;;;;;;;0.15;0.10;;;;;;;39.39;21.77;99972.59;7392914;19;20366;-54
2024/02/05 05:17:10;;;;;;;2.38;0.25;;;;;;;39.61;21.69;99969.69;7391037;19;20049;-54
2024/02/05 05:19:36;;;;;;;0.25;0.25;;;;;;;39.80;21.35;99960.84;7391413;19;20468;-54
2024/02/05 05:22:03;;;;;;;0.30;0.30;;;;;;;39.70;21.32;99963.44;7395445;19;20014;-54
2024/02/05 05:24:29;;;;;;;4.68;0.77;;;;;;;39.73;21.42;99946.75;7391642;19;20019;-54
2024/02/05 05:26:55;;;;;;;0.73;0.50;;;;;;;39.82;20.98;99943.41;7391399;19;20015;-54
2024/02/05 05:29:21;;;;;;;0.20;0.10;;;;;;;39.88;21.07;99946.50;7392791;19;20100;-55
2024/02/05 05:31:47;;;;;;;0.57;0.30;;;;;;;39.84;20.93;99946.38;7394914;19;20837;-54
2024/02/05 05:34:13;;;;;;;0.60;0.40;;;;;;;39.79;21.16;99950.59;7390774;19;20382;-54
2024/02/05 05:36:39;;;;;;;5.57;0.65;;;;;;;40.24;20.92;99958.59;7393395;19;20490;-55
2024/02/05 05:39:05;;;;;;;0.52;0.32;;;;;;;39.97;20.63;99942.41;7391879;19;20036;-54
2024/02/05 05:41:31;;;;;;;2.20;0.25;;;;;;;40.20;20.89;99946.03;7390156;19;20014;-54
2024/02/05 05:43:59;;;;;;;1.30;0.73;;;;;;;40.32;20.84;99938.38;7391552;19;20011;-54
2024/02/05 05:46:27;;;;;;;1.50;0.45;;;;;;;40.07;20.76;99928.16;7395234;19;20014;-52
2024/02/05 05:48:54;;;;;;;0.52;0.43;;;;;;;40.13;21.06;99926.84;7391598;19;20063;-54
2024/02/05 05:51:20;;;;;;;21.90;0.57;;;;;;;40.13;20.54;99929.78;7390729;19;20041;-54
2024/02/05 05:53:46;;;;;;;0.30;0.30;;;;;;;40.24;20.77;99928.66;7389983;19;20014;-52
2024/02/05 05:56:12;;;;;;;1.45;0.20;;;;;;;39.56;21.01;99916.34;7395541;19;20409;-53
2024/02/05 05:58:38;;;;;;;0.98;0.28;;;;;;;39.67;20.79;99923.97;7393328;19;20036;-53
2024/02/05 06:01:05;;;;;;;2.00;0.40;;;;;;;40.27;20.51;99915.59;7393363;19;20023;-54
2024/02/05 06:03:32;;;;;;;2.95;0.75;;;;;;;40.47;20.56;99910.34;7391206;19;20007;-52
2024/02/05 06:06:03;;;;;;;1.38;0.65;;;;;;;40.57;20.56;99913.53;7395044;19;20033;-52
2024/02/05 06:08:29;;;;;;;1.10;0.25;;;;;;;40.44;20.69;99920.47;7394015;19;20014;-52
2024/02/05 06:10:55;;;;;;;0.15;0.13;;;;;;;40.41;20.77;99910.19;7395240;19;20115;-52
2024/02/05 06:13:21;;;;;;;2.38;1.33;;;;;;;40.07;20.19;99913.56;7399341;19;20558;-52
2024/02/05 06:15:47;;;;;;;0.38;0.38;;;;;;;39.85;20.79;99924.53;7401126;19;20013;-52
2024/02/05 06:18:13;;;;;;;2.50;0.30;;;;;;;39.80;20.72;99917.09;7397550;19;20031;-53
2024/02/05 06:20:39;;;;;;;0.73;0.10;;;;;;;39.89;20.85;99918.84;7398369;19;20019;-53
2024/02/05 06:23:05;;;;;;;0.30;0.22;;;;;;;39.80;20.82;99920.00;7398809;19;20010;-52
2024/02/05 06:25:32;;;;;;;0.90;0.50;;;;;;;39.71;20.58;99929.19;7400081;19;20022;-52
2024/02/05 06:27:58;;;;;;;4.38;1.05;;;;;;;39.28;21.04;99912.47;7398498;19;20069;-53
2024/02/05 06:30:26;;;;;;;0.20;0.17;;;;;;;39.54;20.71;99915.50;7401287;19;20559;-52
2024/02/05 06:32:53;;;;;;;1.00;0.68;;;;;;;39.65;21.02;99912.25;7399126;19;20074;-53
2024/02/05 06:35:19;;;;;;;0.63;0.50;;;;;;;39.68;20.81;99902.13;7400942;19;20028;-53
2024/02/05 06:37:45;;;;;;;9.93;1.25;;;;;;;40.01;20.50;99912.63;7400992;19;20031;-53
2024/02/05 06:40:13;;;;;;;10.35;2.08;;;;;;;39.88;20.30;99899.84;7401798;19;20014;-53
2024/02/05 06:42:39;;;;;;;7.05;1.20;;;;;;;39.80;20.70;99901.75;7400612;19;20013;-53
2024/02/05 06:45:07;;;;;;;8.88;1.00;;;;;;;39.79;20.82;99903.94;7400118;19;20006;-53
2024/02/05 06:47:33;;;;;;;3.05;1.00;;;;;;;39.49;20.56;99905.88;7399875;19;20011;-53
2024/02/05 06:49:59;;;;;;;11.07;1.58;;;;;;;39.32;21.14;99919.19;7400215;19;20010;-52
2024/02/05 06:52:26;;;;;;;1.15;0.85;;;;;;;38.98;20.83;99923.09;7398440;19;20070;-52
2024/02/05 06:54:52;;;;;;;6.32;0.47;;;;;;;38.87;21.13;99935.81;7400314;19;20037;-53
2024/02/05 06:57:19;;;;;;;0.30;0.30;;;;;;;38.78;21.05;99928.94;7399598;19;20030;-53
2024/02/05 06:59:45;;;;;;;2.03;0.63;;;;;;;38.62;21.09;99934.16;7400374;19;20333;-52
2024/02/05 07:02:13;;;;;;;1.33;0.90;;;;;;;38.66;21.47;99931.41;7401384;19;20007;-53
2024/02/05 07:04:39;;;;;;;4.68;1.38;;;;;;;38.59;21.14;99942.09;7398608;19;20010;-53
2024/02/05 07:07:05;;;;;;;1.95;0.98;;;;;;;38.80;21.26;99929.03;7400245;19;20007;-52
2024/02/05 07:09:31;;;;;;;10.43;2.30;;;;;;;38.49;21.30;99927.16;7400310;19;20011;-52
2024/02/05 07:11:58;;;;;;;0.25;0.25;;;;;;;38.26;21.67;99933.56;7398471;19;20015;-53
2024/02/05 07:14:24;;;;;;;2.85;0.98;;;;;;;38.46;21.36;99927.75;7400314;19;20027;-52
2024/02/05 07:16:50;;;;;;;4.95;1.15;;;;;;;38.49;21.06;99927.16;7399840;19;20024;-53
2024/02/05 07:19:16;;;;;;;0.82;0.43;;;;;;;38.28;21.54;99930.75;7399372;19;20011;-52
2024/02/05 07:21:42;;;;;;;0.90;0.38;;;;;;;38.29;21.19;99925.69;7398145;19;20020;-53
2024/02/05 07:24:09;;;;;;;3.63;0.52;;;;;;;37.81;21.89;99931.09;7399908;19;20021;-53
2024/02/05 07:26:35;;;;;;;3.00;0.85;;;;;;;37.64;22.10;99928.91;7399959;19;20011;-53
2024/02/05 07:29:01;;;;;;;1.75;1.00;;;;;;;37.70;21.71;99913.91;7396870;19;20007;-52
2024/02/05 07:31:28;;;;;;;0.95;0.82;;;;;;;37.76;21.62;99922.84;7398829;19;20015;-52
2024/02/05 07:33:54;;;;;;;1.00;0.45;;;;;;;37.64;21.69;99923.09;7397980;19;20046;-53
2024/02/05 07:36:21;;;;;;;0.85;0.40;;;;;;;37.36;22.18;99915.41;7399170;19;20101;-53
2024/02/05 07:38:47;;;;;;;13.82;0.82;;;;;;;37.41;21.86;99911.25;7397516;19;20018;-53
2024/02/05 07:41:15;;;;;;;3.50;0.65;;;;;;;37.52;21.78;99913.16;7399652;19;20044;-53
2024/02/05 07:43:41;;;;;;;0.47;0.30;;;;;;;37.61;21.83;99901.19;7398886;19;20021;-53
2024/02/05 07:46:08;;;;;;;0.47;0.47;;;;;;;37.81;21.83;99904.19;7399298;19;20011;-52
2024/02/05 07:48:35;;;;;;;1.95;0.40;;;;;;;37.71;21.58;99895.78;7398530;19;20018;-53
2024/02/05 07:51:05;;;;;;;0.10;0.10;;;;;;;37.60;21.69;99890.97;7397159;19;20006;-52
2024/02/05 07:53:31;;;;;;;0.10;0.10;;;;;;;33.29;25.12;99895.09;7397530;19;20023;-52
2024/02/05 07:55:58;;;;;;;0.10;0.10;;;;;;;36.85;22.64;99892.91;7396791;19;20451;-52
2024/02/05 07:58:24;;;;;;;0.20;0.10;;;;;;;36.78;22.50;99887.50;7397093;19;20015;-53
2024/02/05 08:00:50;;;;;;;0.60;0.60;;;;;;;21.56;37.41;99900.81;7398367;19;20379;-52
2024/02/05 08:03:16;;;;;;;1.02;0.95;;;;;;;17.21;71.56;99913.59;7398880;19;20034;-52
2024/02/05 08:05:42;;;;;;;0.13;0.13;;;;;;;16.02;95.07;99918.50;7397657;19;20010;-53
2024/02/05 08:08:09;;;;;;;0.10;0.10;;;;;;;15.62;100.00;99913.38;7397860;19;20018;-52
2024/02/05 08:10:36;;;;;;;2.58;0.85;;;;;;;15.44;100.00;99908.25;7391358;19;20570;-52
2024/02/05 08:13:03;;;;;;;0.68;0.35;;;;;;;15.35;100.00;99906.41;7391546;19;20317;-52
2024/02/05 08:15:29;;;;;;;0.10;0.00;;;;;;;15.30;100.00;99912.78;7391220;19;20066;-52
2024/02/05 08:17:55;;;;;;;0.10;0.10;;;;;;;15.27;100.00;99915.84;7389579;19;20021;-52
2024/02/05 08:20:22;;;;;;;1.42;0.95;;;;;;;15.15;100.00;99907.38;7394469;19;20018;-52
2024/02/05 08:22:49;;;;;;;2.60;1.17;;;;;;;15.17;100.00;99918.88;7391622;19;20039;-52
2024/02/05 08:25:15;;;;;;;0.82;0.52;;;;;;;15.22;100.00;99899.75;7394961;19;20011;-52
2024/02/05 08:27:42;;;;;;;0.45;0.28;;;;;;;15.29;100.00;99902.81;7392615;19;20007;-52
2024/02/05 08:30:09;;;;;;;0.68;0.40;;;;;;;15.34;100.00;99909.72;7391986;19;20027;-52
2024/02/05 08:32:35;;;;;;;3.80;0.63;;;;;;;15.38;100.00;99911.00;7393427;19;20022;-52
2024/02/05 08:35:01;;;;;;;0.10;0.08;;;;;;;15.33;100.00;99902.59;7393389;19;20044;-52
2024/02/05 08:37:27;;;;;;;4.15;0.15;;;;;;;15.35;100.00;99911.25;7395567;19;20470;-52
2024/02/05 08:39:53;;;;;;;0.10;0.00;;;;;;;15.38;100.00;99899.00;7392830;19;20074;-52
2024/02/05 08:42:20;;;;;;;1.77;0.65;;;;;;;15.37;100.00;99908.72;7393133;19;20022;-52
2024/02/05 08:44:46;;;;;;;0.10;0.10;;;;;;;15.41;100.00;99907.19;7396532;19;20460;-52
2024/02/05 08:47:13;;;;;;;0.80;0.65;;;;;;;15.44;100.00;99902.63;7393728;19;20459;-52
2024/02/05 08:49:41;;;;;;;0.45;0.28;;;;;;;15.46;100.00;99892.44;7392760;19;20356;-52
2024/02/05 08:52:07;;;;;;;0.10;0.10;;;;;;;15.49;100.00;99899.06;7390886;19;20011;-52
2024/02/05 08:54:36;;;;;;;2.72;0.45;;;;;;;15.49;100.00;99893.44;7392447;19;20365;-52
2024/02/05 08:57:03;;;;;;;3.20;0.63;;;;;;;15.46;100.00;99888.88;7397506;19;20018;-52
2024/02/05 08:59:32;;;;;;;0.30;0.20;;;;;;;15.53;100.00;99893.94;7394221;19;20027;-52
2024/02/05 09:01:58;;;;;;;2.75;0.70;;;;;;;15.60;100.00;99894.22;7397503;19;20074;-52
2024/02/05 09:04:28;;;;;;;0.50;0.45;;;;;;;15.61;100.00;99895.78;7389832;19;20479;-52
2024/02/05 09:06:54;;;;;;;1.25;0.75;;;;;;;15.64;100.00;99888.34;7394236;19;20015;-52
2024/02/05 09:09:20;;;;;;;0.10;0.00;;;;;;;15.69;100.00;99882.75;7391671;19;20406;-52
2024/02/05 09:11:47;;;;;;;0.10;0.10;;;;;;;15.79;100.00;99889.63;7390995;19;20021;-52
2024/02/05 09:14:13;;;;;;;0.10;0.10;;;;;;;15.79;100.00;99880.44;7392974;19;20352;-52
2024/02/05 09:16:39;;;;;;;0.20;0.10;;;;;;;15.89;100.00;99898.59;7392500;19;20019;-52
2024/02/05 09:19:05;;;;;;;0.00;0.00;;;;;;;15.91;100.00;99879.94;7395430;19;20031;-52
2024/02/05 09:21:31;;;;;;;0.10;0.10;;;;;;;15.93;100.00;99879.44;7392971;19;20388;-53
2024/02/05 09:23:57;;;;;;;0.52;0.10;;;;;;;15.98;100.00;99884.28;7392772;19;20623;-52
2024/02/05 09:26:24;;;;;;;0.00;0.00;;;;;;;15.96;100.00;99869.22;7390689;19;20037;-52
2024/02/05 09:28:50;;;;;;;0.32;0.32;;;;;;;16.03;100.00;99869.44;7392714;19;20084;-52
2024/02/05 09:31:16;;;;;;;0.10;0.00;;;;;;;16.03;100.00;99855.41;7392646;19;20354;-53
2024/02/05 09:33:42;;;;;;;0.10;0.00;;;;;;;16.04;100.00;99859.75;7392082;19;20083;-52
2024/02/05 09:36:09;;;;;;;0.10;0.10;;;;;;;16.07;100.00;99858.72;7392488;19;20024;-53
2024/02/05 09:38:36;;;;;;;0.30;0.25;;;;;;;16.07;100.00;99858.72;7390983;19;20842;-52
2024/02/05 09:41:07;;;;;;;0.93;0.20;;;;;;;16.09;100.00;99858.22;7393115;19;20014;-52
2024/02/05 09:43:33;;;;;;;;;;;;;;;16.16;100.00;99852.06;7394249;19;20015;-52
2024/02/05 09:46:07;;;;;;;0.50;0.22;;;;;;;31.65;50.59;99818.13;7399792;19;19949;-52
2024/02/05 09:48:35;;;;;;;2.40;0.43;;;;;;;35.75;34.59;99816.91;7399797;19;20033;-52
2024/02/05 09:51:01;;;;;;;1.27;0.10;;;;;;;36.73;30.72;99819.81;7399475;19;20007;-52
2024/02/05 09:53:29;;;;;;;2.60;0.85;;;;;;;37.73;29.00;99802.81;7399819;19;20039;-52
2024/02/05 09:56:00;;;;;;;4.20;0.43;;;;;;;38.37;27.96;99798.66;7402918;19;20423;-52
2024/02/05 09:58:27;;;;;;;13.60;3.65;;;;;;;38.01;27.25;99803.13;7398738;19;20362;-53
2024/02/05 10:00:54;;;;;;;12.63;1.85;;;;;;;38.09;26.64;99780.19;7400402;19;20074;-53
2024/02/05 10:03:20;;;;;;;8.10;0.90;;;;;;;38.14;26.09;99781.78;7399681;19;20014;-52
2024/02/05 10:05:49;;;;;;;3.00;0.63;;;;;;;37.69;26.05;99787.38;7399367;19;20006;-52
2024/02/05 10:08:16;;;;;;;2.35;0.38;;;;;;;37.60;25.75;99771.06;7398445;19;20024;-53
2024/02/05 10:10:44;;;;;;;0.47;0.30;;;;;;;37.42;25.99;99767.47;7398028;19;20006;-53
2024/02/05 10:13:12;;;;;;;1.92;0.57;;;;;;;37.23;26.16;99787.03;7398655;19;20719;-53
2024/02/05 10:15:41;;;;;;;0.75;0.20;;;;;;;37.55;25.77;99781.03;7400087;19;20084;-52
2024/02/05 10:18:10;;;;;;;1.65;0.10;;;;;;;37.66;25.52;99780.75;7398470;19;20007;-52
2024/02/05 10:20:38;;;;;;;0.63;0.30;;;;;;;37.75;25.09;99778.91;7396802;19;20763;-53
2024/02/05 10:23:04;;;;;;;0.10;0.00;;;;;;;37.92;25.08;99772.28;7397574;19;20365;-53
2024/02/05 10:25:31;;;;;;;3.22;0.20;;;;;;;37.75;24.85;99770.19;7397280;19;20035;-53
2024/02/05 10:28:02;;;;;;;0.20;0.20;;;;;;;37.86;24.70;99769.13;7399328;19;20006;-53
2024/02/05 10:30:29;;;;;;;;;;;;;;;38.03;24.89;99759.59;7397368;19;20014;-53
2024/02/05 10:33:00;;;;;;;0.77;0.35;;;;;;;38.09;24.82;99762.72;7395403;19;20367;-52
2024/02/05 10:35:27;;;;;;;0.65;0.20;;;;;;;38.12;24.89;99752.63;7395885;19;20006;-52
2024/02/05 10:38:05;;;;;;;0.10;0.10;;;;;;;38.00;24.42;99755.13;7400227;19;20015;-53
2024/02/05 10:40:36;;;;;;;0.95;0.45;;;;;;;37.86;24.40;99737.16;7400503;19;20018;-52
2024/02/05 10:43:04;;;;;;;0.10;0.10;;;;;;;37.59;25.01;99732.53;7397664;19;20010;-52
2024/02/05 10:45:33;;;;;;;0.03;0.00;;;;;;;37.58;25.06;99733.16;7397833;19;20019;-53
2024/02/05 10:48:01;;;;;;;0.38;0.38;;;;;;;37.69;24.65;99737.94;7396833;19;20033;-52
2024/02/05 10:50:27;;;;;;;0.22;0.22;;;;;;;37.90;24.80;99722.78;7397126;19;20353;-52
2024/02/05 10:52:53;;;;;;;0.10;0.00;;;;;;;37.97;24.66;99739.75;7398933;19;20074;-52
2024/02/05 10:55:20;;;;;;;0.30;0.10;;;;;;;38.10;24.81;99728.56;7395920;19;20015;-52
2024/02/05 10:57:48;;;;;;;0.55;0.15;;;;;;;38.30;24.57;99724.19;7397144;19;20017;-52
2024/02/05 11:00:17;;;;;;;0.25;0.15;;;;;;;38.22;24.25;99723.91;7397302;19;20010;-53
2024/02/05 11:02:55;;;;;;;1.00;0.30;;;;;;;38.29;24.49;99722.69;7396619;19;20014;-52
2024/02/05 11:05:24;;;;;;;0.10;0.10;;;;;;;38.28;24.26;99732.88;7396580;19;20014;-53
2024/02/05 11:08:21;;;;;;;3.72;0.30;;;;;;;37.81;24.41;99726.81;7395915;19;20007;-53
2024/02/05 11:10:52;;;;;;;0.30;0.00;;;;;;;37.76;24.22;99720.06;7394848;19;20092;-52
2024/02/05 11:13:31;;;;;;;0.20;0.13;;;;;;;37.77;24.38;99717.91;7395884;19;20022;-53
2024/02/05 11:15:59;;;;;;;0.00;0.00;;;;;;;38.00;24.14;99720.22;7395999;19;20677;-53
2024/02/05 11:18:29;;;;;;;0.10;0.10;;;;;;;37.70;24.41;99714.03;7396736;19;20079;-52
2024/02/05 11:20:59;;;;;;;8.27;0.22;;;;;;;37.74;24.32;99716.34;7394569;19;20149;-52
2024/02/05 11:23:28;;;;;;;7.63;0.37;;;;;;;37.36;24.77;99706.22;7395856;19;20011;-53
2024/02/05 11:25:54;;;;;;;0.55;0.10;;;;;;;37.19;25.04;99705.56;7396304;19;20258;-53
2024/02/05 11:28:20;;;;;;;0.10;0.10;;;;;;;36.80;25.28;99699.63;7395661;19;20025;-52
2024/02/05 11:30:46;;;;;;;0.10;0.00;;;;;;;36.71;25.37;99697.81;7397299;19;20014;-53